createdAt,value
2022-08-30T00:00:28.164Z,1017.8
2022-08-30T00:01:44.349Z,1017.8
2022-08-30T00:03:00.312Z,1017.8
2022-08-30T00:04:16.717Z,1017.8
2022-08-30T00:05:32.690Z,1017.8
2022-08-30T00:06:48.886Z,1017.7
2022-08-30T00:08:05.286Z,1017.8
2022-08-30T00:09:21.465Z,1017.8
2022-08-30T00:10:37.439Z,1017.8
2022-08-30T00:11:53.846Z,1017.9
2022-08-30T00:13:08.839Z,1017.8
2022-08-30T00:14:25.234Z,1017.8
2022-08-30T00:15:41.431Z,1017.9
2022-08-30T00:16:57.621Z,1017.9
2022-08-30T00:18:13.584Z,1017.9
2022-08-30T00:19:29.992Z,1017.9
2022-08-30T00:20:45.954Z,1017.9
2022-08-30T00:22:02.355Z,1017.9
2022-08-30T00:23:18.547Z,1017.9
2022-08-30T00:24:34.516Z,1017.9
2022-08-30T00:25:50.711Z,1017.9
2022-08-30T00:27:07.110Z,1017.9
2022-08-30T00:28:23.080Z,1017.9
2022-08-30T00:29:38.500Z,1017.9
2022-08-30T00:30:54.680Z,1017.9
2022-08-30T00:32:10.886Z,1017.8
2022-08-30T00:33:26.852Z,1017.9
2022-08-30T00:34:43.023Z,1018
2022-08-30T00:35:59.227Z,1017.9
2022-08-30T00:37:15.622Z,1018
2022-08-30T00:38:31.810Z,1018
2022-08-30T00:39:48.003Z,1018
2022-08-30T00:41:03.971Z,1018
2022-08-30T00:42:20.380Z,1017.9
2022-08-30T00:43:36.341Z,1017.9
2022-08-30T00:44:52.754Z,1017.9
2022-08-30T00:46:07.736Z,1017.9
2022-08-30T00:47:23.913Z,1017.9
2022-08-30T00:48:40.116Z,1017.9
2022-08-30T00:49:56.293Z,1017.9
2022-08-30T00:51:12.477Z,1017.8
2022-08-30T00:52:28.658Z,1017.9
2022-08-30T00:53:45.090Z,1017.9
2022-08-30T00:55:01.267Z,1017.9
2022-08-30T00:56:17.230Z,1017.9
2022-08-30T00:57:33.639Z,1017.8
2022-08-30T00:58:49.613Z,1017.9
2022-08-30T01:00:05.793Z,1017.9
2022-08-30T01:01:22.206Z,1017.9
2022-08-30T01:02:37.187Z,1017.9
2022-08-30T01:03:53.373Z,1017.9
2022-08-30T01:05:09.773Z,1017.9
2022-08-30T01:06:25.751Z,1017.9
2022-08-30T01:07:42.166Z,1017.9
2022-08-30T01:08:58.348Z,1018
2022-08-30T01:10:14.526Z,1018.1
2022-08-30T01:11:30.713Z,1018
2022-08-30T01:12:46.899Z,1018.1
2022-08-30T01:14:02.870Z,1018
2022-08-30T01:15:19.050Z,1018
2022-08-30T01:16:35.231Z,1018.1
2022-08-30T01:17:51.656Z,1018
2022-08-30T01:19:06.635Z,1018.1
2022-08-30T01:20:22.826Z,1018
2022-08-30T01:21:39.013Z,1018.1
2022-08-30T01:22:55.186Z,1018.1
2022-08-30T01:24:11.387Z,1018.1
2022-08-30T01:25:27.793Z,1018.1
2022-08-30T01:26:43.761Z,1018.1
2022-08-30T01:27:59.930Z,1018.1
2022-08-30T01:29:16.128Z,1018.1
2022-08-30T01:30:32.550Z,1018.1
2022-08-30T01:31:48.498Z,1018.1
2022-08-30T01:33:04.919Z,1018.1
2022-08-30T01:34:20.879Z,1018.1
2022-08-30T01:35:36.313Z,1018
2022-08-30T01:36:52.256Z,1018
2022-08-30T01:39:24.881Z,1018
2022-08-30T01:40:41.070Z,1018.1
2022-08-30T01:41:57.002Z,1017.9
2022-08-30T01:43:13.429Z,1018
2022-08-30T01:44:29.378Z,1018
2022-08-30T01:45:45.569Z,1018
2022-08-30T01:47:01.765Z,1018.1
2022-08-30T01:48:18.186Z,1018
2022-08-30T01:49:34.141Z,1018
2022-08-30T01:50:50.559Z,1018.1
2022-08-30T01:52:05.522Z,1018.1
2022-08-30T01:53:21.718Z,1018.1
2022-08-30T01:54:38.137Z,1018
2022-08-30T01:55:54.079Z,1018.1
2022-08-30T01:57:10.276Z,1018.1
2022-08-30T01:58:26.707Z,1018.1
2022-08-30T01:59:42.639Z,1018.1
2022-08-30T02:00:59.067Z,1018
2022-08-30T02:02:15.272Z,1018
2022-08-30T02:03:31.440Z,1018
2022-08-30T02:04:47.402Z,1017.9
2022-08-30T02:06:03.580Z,1018
2022-08-30T02:07:19.773Z,1017.9
2022-08-30T02:08:35.210Z,1018
2022-08-30T02:09:51.161Z,1017.9
2022-08-30T02:11:07.586Z,1018
2022-08-30T02:12:23.539Z,1017.9
2022-08-30T02:13:39.968Z,1017.9
2022-08-30T02:14:55.916Z,1017.9
2022-08-30T02:16:12.335Z,1017.9
2022-08-30T02:17:28.520Z,1017.9
2022-08-30T02:18:44.705Z,1018
2022-08-30T02:20:00.000Z,1017.9
2022-08-30T02:21:17.099Z,1018
2022-08-30T02:22:33.024Z,1018
2022-08-30T02:23:49.465Z,1017.9
2022-08-30T02:25:04.413Z,1017.9
2022-08-30T02:26:20.863Z,1017.8
2022-08-30T02:27:36.796Z,1017.9
2022-08-30T02:28:52.990Z,1017.9
2022-08-30T02:30:09.165Z,1017.8
2022-08-30T02:31:25.360Z,1017.8
2022-08-30T02:32:41.788Z,1017.9
2022-08-30T02:33:57.971Z,1017.8
2022-08-30T02:35:13.930Z,1017.8
2022-08-30T02:36:30.356Z,1017.9
2022-08-30T02:37:46.295Z,1017.8
2022-08-30T02:39:02.732Z,1018
2022-08-30T02:40:18.913Z,1017.9
2022-08-30T02:41:34.122Z,1017.9
2022-08-30T02:42:50.057Z,1017.8
2022-08-30T02:44:06.243Z,1017.8
2022-08-30T02:45:22.437Z,1017.9
2022-08-30T02:46:38.611Z,1017.9
2022-08-30T02:47:55.048Z,1017.9
2022-08-30T02:49:10.270Z,1017.9
2022-08-30T02:50:26.198Z,1017.9
2022-08-30T02:51:42.639Z,1017.9
2022-08-30T02:52:58.577Z,1017.9
2022-08-30T02:54:15.019Z,1018
2022-08-30T02:55:31.207Z,1017.9
2022-08-30T02:56:47.383Z,1017.9
2022-08-30T02:58:03.331Z,1017.9
2022-08-30T02:59:19.755Z,1017.9
2022-08-30T03:00:35.692Z,1017.9
2022-08-30T03:01:52.136Z,1017.9
2022-08-30T03:03:08.317Z,1017.9
2022-08-30T03:04:24.514Z,1017.9
2022-08-30T03:05:39.471Z,1017.8
2022-08-30T03:06:55.907Z,1017.9
2022-08-30T03:08:11.848Z,1017.9
2022-08-30T03:09:28.025Z,1017.9
2022-08-30T03:10:44.475Z,1017.9
2022-08-30T03:12:00.654Z,1017.9
2022-08-30T03:13:16.843Z,1018
2022-08-30T03:14:33.022Z,1017.9
2022-08-30T03:15:48.964Z,1017.9
2022-08-30T03:17:05.142Z,1017.9
2022-08-30T03:18:21.335Z,1017.9
2022-08-30T03:19:37.786Z,1017.9
2022-08-30T03:20:53.712Z,1017.9
2022-08-30T03:22:08.908Z,1017.9
2022-08-30T03:23:25.097Z,1017.9
2022-08-30T03:24:41.537Z,1017.9
2022-08-30T03:25:57.723Z,1017.8
2022-08-30T03:27:13.925Z,1017.9
2022-08-30T03:28:29.844Z,1017.9
2022-08-30T03:29:46.299Z,1017.9
2022-08-30T03:31:02.217Z,1018
2022-08-30T03:32:18.664Z,1018
2022-08-30T03:33:34.851Z,1018
2022-08-30T03:34:50.775Z,1018
2022-08-30T03:36:06.963Z,1018
2022-08-30T03:37:23.412Z,1018
2022-08-30T03:38:38.351Z,1018
2022-08-30T03:39:54.815Z,1018
2022-08-30T03:41:10.986Z,1018.1
2022-08-30T03:42:27.174Z,1018
2022-08-30T03:43:43.377Z,1018
2022-08-30T03:44:59.288Z,1018.1
2022-08-30T03:46:15.484Z,1018
2022-08-30T03:47:31.935Z,1018.1
2022-08-30T03:48:48.125Z,1018.1
2022-08-30T03:50:04.300Z,1018
2022-08-30T03:51:20.228Z,1018.1
2022-08-30T03:52:36.682Z,1018
2022-08-30T03:53:52.607Z,1018.1
2022-08-30T03:55:08.076Z,1018.1
2022-08-30T03:56:24.259Z,1018.1
2022-08-30T03:57:40.450Z,1018.1
2022-08-30T03:58:56.365Z,1018.1
2022-08-30T04:00:12.560Z,1018.1
2022-08-30T04:01:28.745Z,1018.1
2022-08-30T04:02:45.187Z,1018.1
2022-08-30T04:04:01.392Z,1018.1
2022-08-30T04:05:17.570Z,1018.1
2022-08-30T04:06:33.750Z,1018.1
2022-08-30T04:07:49.947Z,1018.1
2022-08-30T04:09:05.874Z,1018.2
2022-08-30T04:10:22.322Z,1018.2
2022-08-30T04:11:37.518Z,1018.1
2022-08-30T04:12:53.717Z,1018.2
2022-08-30T04:14:09.628Z,1018.1
2022-08-30T04:15:26.090Z,1018.2
2022-08-30T04:16:42.013Z,1018.2
2022-08-30T04:17:58.452Z,1018.2
2022-08-30T04:19:14.646Z,1018.2
2022-08-30T04:20:30.834Z,1018.2
2022-08-30T04:21:46.748Z,1018.2
2022-08-30T04:23:03.207Z,1018.2
2022-08-30T04:24:19.120Z,1018.3
2022-08-30T04:25:35.587Z,1018.3
2022-08-30T04:26:51.772Z,1018.2
2022-08-30T04:28:06.969Z,1018.3
2022-08-30T04:29:22.901Z,1018.3
2022-08-30T04:30:39.356Z,1018.3
2022-08-30T04:31:55.265Z,1018.3
2022-08-30T04:33:11.726Z,1018.4
2022-08-30T04:34:27.917Z,1018.4
2022-08-30T04:35:44.101Z,1018.3
2022-08-30T04:37:00.007Z,1018.4
2022-08-30T04:38:16.193Z,1018.3
2022-08-30T04:39:32.382Z,1018.3
2022-08-30T04:40:48.586Z,1018.3
2022-08-30T04:42:04.769Z,1018.3
2022-08-30T04:43:21.223Z,1018.3
2022-08-30T04:44:36.152Z,1018.4
2022-08-30T04:45:52.619Z,1018.3
2022-08-30T04:47:08.523Z,1018.4
2022-08-30T04:48:24.984Z,1018.3
2022-08-30T04:49:41.175Z,1018.4
2022-08-30T04:50:57.086Z,1018.4
2022-08-30T04:52:13.547Z,1018.3
2022-08-30T04:53:29.734Z,1018.5
2022-08-30T04:54:45.649Z,1018.4
2022-08-30T04:56:02.111Z,1018.4
2022-08-30T04:57:18.298Z,1018.4
2022-08-30T04:58:34.493Z,1018.4
2022-08-30T04:59:50.399Z,1018.3
2022-08-30T05:01:05.874Z,1018.4
2022-08-30T05:02:22.056Z,1018.4
2022-08-30T05:03:38.254Z,1018.4
2022-08-30T05:04:54.433Z,1018.4
2022-08-30T05:06:10.624Z,1018.3
2022-08-30T05:07:26.527Z,1018.4
2022-08-30T05:08:43.004Z,1018.4
2022-08-30T05:09:59.190Z,1018.4
2022-08-30T05:11:15.367Z,1018.4
2022-08-30T05:12:31.569Z,1018.4
2022-08-30T05:13:47.745Z,1018.5
2022-08-30T05:15:03.670Z,1018.4
2022-08-30T05:16:19.855Z,1018.5
2022-08-30T05:17:35.041Z,1018.4
2022-08-30T05:18:51.514Z,1018.4
2022-08-30T05:20:07.708Z,1018.4
2022-08-30T05:21:23.882Z,1018.5
2022-08-30T05:22:39.809Z,1018.5
2022-08-30T05:23:55.977Z,1018.5
2022-08-30T05:25:12.460Z,1018.6
2022-08-30T05:26:28.635Z,1018.6
2022-08-30T05:27:44.833Z,1018.6
2022-08-30T05:29:01.009Z,1018.6
2022-08-30T05:30:16.913Z,1018.6
2022-08-30T05:31:33.394Z,1018.6
2022-08-30T05:32:49.579Z,1018.6
2022-08-30T05:34:04.789Z,1018.6
2022-08-30T05:35:20.972Z,1018.6
2022-08-30T05:36:37.160Z,1018.6
2022-08-30T05:37:53.071Z,1018.6
2022-08-30T05:39:09.248Z,1018.6
2022-08-30T05:40:25.425Z,1018.6
2022-08-30T05:41:41.614Z,1018.5
2022-08-30T05:42:58.098Z,1018.5
2022-08-30T05:44:14.278Z,1018.6
2022-08-30T05:45:30.180Z,1018.5
2022-08-30T05:46:46.657Z,1018.6
2022-08-30T05:48:02.561Z,1018.5
2022-08-30T05:49:19.032Z,1018.6
2022-08-30T05:50:34.227Z,1018.6
2022-08-30T05:51:50.424Z,1018.6
2022-08-30T05:53:06.602Z,1018.6
2022-08-30T05:54:22.785Z,1018.7
2022-08-30T05:55:38.966Z,1018.6
2022-08-30T05:56:55.147Z,1018.6
2022-08-30T05:58:11.356Z,1018.6
2022-08-30T05:59:27.552Z,1018.6
2022-08-30T06:00:43.721Z,1018.7
2022-08-30T06:01:59.894Z,1018.7
2022-08-30T06:03:16.092Z,1018.7
2022-08-30T06:04:32.301Z,1018.7
2022-08-30T06:05:48.480Z,1018.7
2022-08-30T06:07:03.693Z,1018.7
2022-08-30T06:08:19.855Z,1018.7
2022-08-30T06:09:36.047Z,1018.7
2022-08-30T06:10:52.220Z,1018.7
2022-08-30T06:12:08.424Z,1018.7
2022-08-30T06:13:24.591Z,1018.8
2022-08-30T06:14:40.815Z,1018.7
2022-08-30T06:15:56.979Z,1018.7
2022-08-30T06:17:13.174Z,1018.8
2022-08-30T06:18:29.356Z,1018.7
2022-08-30T06:19:45.550Z,1018.7
2022-08-30T06:21:01.739Z,1018.7
2022-08-30T06:22:17.920Z,1018.7
2022-08-30T06:23:33.125Z,1018.7
2022-08-30T06:24:49.314Z,1018.8
2022-08-30T06:26:05.495Z,1018.7
2022-08-30T06:27:21.692Z,1018.7
2022-08-30T06:28:37.876Z,1018.7
2022-08-30T06:29:54.074Z,1018.7
2022-08-30T06:31:10.264Z,1018.8
2022-08-30T06:32:26.448Z,1018.8
2022-08-30T06:33:42.622Z,1018.8
2022-08-30T06:34:58.823Z,1018.7
2022-08-30T06:36:14.988Z,1018.7
2022-08-30T06:37:31.197Z,1018.8
2022-08-30T06:38:47.375Z,1018.8
2022-08-30T06:40:02.574Z,1018.8
2022-08-30T06:41:18.777Z,1018.8
2022-08-30T06:42:34.968Z,1018.8
2022-08-30T06:43:51.139Z,1018.9
2022-08-30T06:45:07.344Z,1018.8
2022-08-30T06:46:23.526Z,1018.9
2022-08-30T06:47:39.684Z,1018.9
2022-08-30T06:48:55.869Z,1018.8
2022-08-30T06:50:12.061Z,1018.8
2022-08-30T06:51:28.254Z,1018.9
2022-08-30T06:52:44.468Z,1018.9
2022-08-30T06:54:00.648Z,1018.9
2022-08-30T06:55:16.848Z,1018.9
2022-08-30T06:56:32.054Z,1018.9
2022-08-30T06:57:48.239Z,1018.9
2022-08-30T06:59:04.399Z,1018.9
2022-08-30T07:00:20.577Z,1018.9
2022-08-30T07:01:36.787Z,1019
2022-08-30T07:02:52.988Z,1019
2022-08-30T07:04:08.167Z,1019
2022-08-30T07:05:24.360Z,1018.9
2022-08-30T07:06:40.552Z,1018.9
2022-08-30T07:07:56.760Z,1018.9
2022-08-30T07:09:12.956Z,1018.9
2022-08-30T07:10:29.109Z,1019
2022-08-30T07:11:45.312Z,1018.9
2022-08-30T07:13:01.520Z,1018.9
2022-08-30T07:14:17.716Z,1018.9
2022-08-30T07:15:33.897Z,1018.8
2022-08-30T07:16:50.059Z,1018.8
2022-08-30T07:18:06.276Z,1018.9
2022-08-30T07:19:22.446Z,1018.9
2022-08-30T07:20:37.637Z,1018.9
2022-08-30T07:21:53.868Z,1018.9
2022-08-30T07:23:10.015Z,1018.9
2022-08-30T07:24:26.245Z,1018.9
2022-08-30T07:25:42.434Z,1018.9
2022-08-30T07:26:58.590Z,1018.9
2022-08-30T07:28:14.807Z,1018.9
2022-08-30T07:29:31.002Z,1019
2022-08-30T07:30:47.153Z,1019
2022-08-30T07:32:03.343Z,1019
2022-08-30T07:33:19.567Z,1019
2022-08-30T07:34:35.713Z,1019
2022-08-30T07:35:51.905Z,1019
2022-08-30T07:37:07.150Z,1018.9
2022-08-30T07:38:23.337Z,1019
2022-08-30T07:39:39.478Z,1019
2022-08-30T07:40:55.715Z,1019.1
2022-08-30T07:42:11.857Z,1019.1
2022-08-30T07:43:28.091Z,1019.1
2022-08-30T07:44:44.238Z,1019.1
2022-08-30T07:46:00.430Z,1019.1
2022-08-30T07:47:16.610Z,1019.1
2022-08-30T07:48:32.836Z,1019.1
2022-08-30T07:49:49.029Z,1019.1
2022-08-30T07:51:05.229Z,1019.1
2022-08-30T07:52:21.417Z,1019.2
2022-08-30T07:53:36.608Z,1019.1
2022-08-30T07:54:52.762Z,1019.2
2022-08-30T07:56:08.947Z,1019.2
2022-08-30T07:57:25.176Z,1019.2
2022-08-30T07:58:41.377Z,1019.2
2022-08-30T07:59:57.563Z,1019.1
2022-08-30T08:01:13.701Z,1019.1
2022-08-30T08:02:29.892Z,1019.1
2022-08-30T08:03:46.089Z,1019.1
2022-08-30T08:05:02.319Z,1019.1
2022-08-30T08:06:18.508Z,1019.1
2022-08-30T08:07:34.644Z,1019.2
2022-08-30T08:08:50.872Z,1019.2
2022-08-30T08:10:06.052Z,1019.2
2022-08-30T08:11:22.281Z,1019.2
2022-08-30T08:12:38.421Z,1019.2
2022-08-30T08:13:54.622Z,1019.2
2022-08-30T08:15:10.845Z,1019.2
2022-08-30T08:16:27.027Z,1019.2
2022-08-30T08:17:43.180Z,1019.2
2022-08-30T08:18:59.402Z,1019.2
2022-08-30T08:20:15.602Z,1019.2
2022-08-30T08:21:31.737Z,1019.2
2022-08-30T08:22:47.978Z,1019.2
2022-08-30T08:24:04.161Z,1019.2
2022-08-30T08:25:20.310Z,1019.2
2022-08-30T08:26:35.558Z,1019.2
2022-08-30T08:27:51.715Z,1019.2
2022-08-30T08:29:07.938Z,1019.2
2022-08-30T08:30:24.091Z,1019.3
2022-08-30T08:31:40.307Z,1019.2
2022-08-30T08:32:56.459Z,1019.3
2022-08-30T08:34:12.692Z,1019.2
2022-08-30T08:35:28.831Z,1019.3
2022-08-30T08:36:45.074Z,1019.3
2022-08-30T08:38:01.217Z,1019.3
2022-08-30T08:39:17.408Z,1019.3
2022-08-30T08:40:33.587Z,1019.3
2022-08-30T08:41:49.822Z,1019.3
2022-08-30T08:43:04.987Z,1019.3
2022-08-30T08:44:21.219Z,1019.3
2022-08-30T08:45:37.410Z,1019.3
2022-08-30T08:46:53.600Z,1019.4
2022-08-30T08:48:09.745Z,1019.4
2022-08-30T08:49:25.986Z,1019.3
2022-08-30T08:50:42.121Z,1019.3
2022-08-30T08:51:58.316Z,1019.3
2022-08-30T08:53:14.549Z,1019.3
2022-08-30T08:54:30.725Z,1019.4
2022-08-30T08:55:46.874Z,1019.3
2022-08-30T08:57:03.121Z,1019.3
2022-08-30T08:58:19.247Z,1019.4
2022-08-30T08:59:34.502Z,1019.4
2022-08-30T09:00:50.703Z,1019.4
2022-08-30T09:02:06.892Z,1019.4
2022-08-30T09:03:23.026Z,1019.4
2022-08-30T09:04:39.222Z,1019.3
2022-08-30T09:05:55.396Z,1019.3
2022-08-30T09:07:11.642Z,1019.4
2022-08-30T09:08:27.776Z,1019.4
2022-08-30T09:09:44.014Z,1019.4
2022-08-30T09:11:00.151Z,1019.4
2022-08-30T09:12:16.396Z,1019.4
2022-08-30T09:13:32.534Z,1019.4
2022-08-30T09:14:48.779Z,1019.3
2022-08-30T09:16:03.975Z,1019.4
2022-08-30T09:17:20.164Z,1019.4
2022-08-30T09:18:36.363Z,1019.3
2022-08-30T09:19:52.553Z,1019.3
2022-08-30T09:21:08.693Z,1019.3
2022-08-30T09:22:24.922Z,1019.4
2022-08-30T09:23:41.109Z,1019.4
2022-08-30T09:24:57.303Z,1019.4
2022-08-30T09:26:13.450Z,1019.4
2022-08-30T09:27:29.675Z,1019.4
2022-08-30T09:28:45.830Z,1019.3
2022-08-30T09:30:01.997Z,1019.4
2022-08-30T09:31:18.206Z,1019.3
2022-08-30T09:32:33.405Z,1019.3
2022-08-30T09:33:49.583Z,1019.4
2022-08-30T09:35:05.838Z,1019.4
2022-08-30T09:36:21.972Z,1019.4
2022-08-30T09:37:38.211Z,1019.4
2022-08-30T09:38:54.356Z,1019.4
2022-08-30T09:40:10.598Z,1019.4
2022-08-30T09:41:26.728Z,1019.4
2022-08-30T09:42:42.978Z,1019.4
2022-08-30T09:43:59.112Z,1019.4
2022-08-30T09:45:15.298Z,1019.4
2022-08-30T09:46:31.542Z,1019.4
2022-08-30T09:47:47.722Z,1019.4
2022-08-30T09:49:02.929Z,1019.4
2022-08-30T09:50:19.127Z,1019.4
2022-08-30T09:51:35.251Z,1019.3
2022-08-30T09:52:51.510Z,1019.4
2022-08-30T09:54:07.625Z,1019.4
2022-08-30T09:55:23.812Z,1019.4
2022-08-30T09:56:40.010Z,1019.3
2022-08-30T09:57:56.256Z,1019.4
2022-08-30T09:59:12.390Z,1019.4
2022-08-30T10:00:28.647Z,1019.4
2022-08-30T10:01:44.778Z,1019.4
2022-08-30T10:03:01.018Z,1019.4
2022-08-30T10:04:17.145Z,1019.4
2022-08-30T10:05:32.410Z,1019.4
2022-08-30T10:06:48.531Z,1019.4
2022-08-30T10:08:04.719Z,1019.4
2022-08-30T10:09:20.916Z,1019.4
2022-08-30T10:10:37.161Z,1019.4
2022-08-30T10:11:53.351Z,1019.3
2022-08-30T10:13:09.555Z,1019.4
2022-08-30T10:14:25.682Z,1019.3
2022-08-30T10:15:41.922Z,1019.3
2022-08-30T10:16:58.048Z,1019.3
2022-08-30T10:18:14.312Z,1019.4
2022-08-30T10:19:30.434Z,1019.3
2022-08-30T10:20:46.684Z,1019.3
2022-08-30T10:22:01.817Z,1019.3
2022-08-30T10:23:18.081Z,1019.3
2022-08-30T10:24:34.270Z,1019.3
2022-08-30T10:25:50.460Z,1019.3
2022-08-30T10:27:06.648Z,1019.3
2022-08-30T10:28:22.837Z,1019.3
2022-08-30T10:29:39.016Z,1019.3
2022-08-30T10:30:55.210Z,1019.3
2022-08-30T10:32:11.398Z,1019.3
2022-08-30T10:33:27.518Z,1019.3
2022-08-30T10:34:43.713Z,1019.3
2022-08-30T10:35:59.973Z,1019.3
2022-08-30T10:37:16.000Z,1019.3
2022-08-30T10:38:31.368Z,1019.2
2022-08-30T10:39:47.493Z,1019.2
2022-08-30T10:41:03.744Z,1019.2
2022-08-30T10:42:19.941Z,1019.2
2022-08-30T10:43:36.054Z,1019.2
2022-08-30T10:44:52.237Z,1019.2
2022-08-30T10:46:08.493Z,1019.2
2022-08-30T10:47:24.700Z,1019.2
2022-08-30T10:48:40.882Z,1019.2
2022-08-30T10:49:56.995Z,1019.2
2022-08-30T10:51:13.253Z,1019.2
2022-08-30T10:52:29.450Z,1019.2
2022-08-30T10:53:45.639Z,1019.2
2022-08-30T10:55:00.831Z,1019.2
2022-08-30T10:56:17.040Z,1019.2
2022-08-30T10:57:33.216Z,1019.2
2022-08-30T10:58:49.329Z,1019.2
2022-08-30T11:00:05.518Z,1019.2
2022-08-30T11:01:21.782Z,1019.2
2022-08-30T11:02:37.968Z,1019.2
2022-08-30T11:03:54.163Z,1019.2
2022-08-30T11:05:10.279Z,1019.2
2022-08-30T11:06:26.536Z,1019.2
2022-08-30T11:07:42.665Z,1019.2
2022-08-30T11:08:58.848Z,1019.2
2022-08-30T11:10:15.046Z,1019.3
2022-08-30T11:11:30.318Z,1019.2
2022-08-30T11:12:46.500Z,1019.2
2022-08-30T11:14:02.701Z,1019.2
2022-08-30T11:15:18.801Z,1019.1
2022-08-30T11:16:35.067Z,1019.2
2022-08-30T11:17:51.253Z,1019.2
2022-08-30T11:19:06.464Z,1019.2
2022-08-30T11:20:22.576Z,1019.2
2022-08-30T11:21:38.862Z,1019.2
2022-08-30T11:22:54.956Z,1019.3
2022-08-30T11:24:11.148Z,1019.2
2022-08-30T11:25:27.419Z,1019.2
2022-08-30T11:26:43.601Z,1019.2
2022-08-30T11:27:59.728Z,1019.2
2022-08-30T11:29:15.977Z,1019.2
2022-08-30T11:30:32.184Z,1019.2
2022-08-30T11:31:48.361Z,1019.2
2022-08-30T11:33:04.557Z,1019.1
2022-08-30T11:34:20.742Z,1019.1
2022-08-30T11:35:35.875Z,1019
2022-08-30T11:36:52.055Z,1019
2022-08-30T11:38:08.244Z,1019
2022-08-30T11:39:24.428Z,1018.9
2022-08-30T11:40:40.697Z,1018.9
2022-08-30T11:41:56.904Z,1018.9
2022-08-30T11:43:12.999Z,1018.9
2022-08-30T11:44:29.272Z,1018.9
2022-08-30T11:45:45.383Z,1018.8
2022-08-30T11:47:01.653Z,1018.8
2022-08-30T11:48:17.837Z,1018.7
2022-08-30T11:49:34.037Z,1018.7
2022-08-30T11:50:50.145Z,1018.7
2022-08-30T11:52:05.433Z,1018.7
2022-08-30T11:53:21.622Z,1018.7
2022-08-30T11:54:37.797Z,1018.7
2022-08-30T11:55:54.001Z,1018.7
2022-08-30T11:57:10.191Z,1018.6
2022-08-30T11:58:26.299Z,1018.7
2022-08-30T11:59:42.560Z,1018.6
2022-08-30T12:00:58.663Z,1018.7
2022-08-30T12:02:14.858Z,1018.6
2022-08-30T12:03:31.045Z,1018.7
2022-08-30T12:04:47.314Z,1018.6
2022-08-30T12:06:03.498Z,1018.7
2022-08-30T12:07:19.605Z,1018.7
2022-08-30T12:08:34.910Z,1018.7
2022-08-30T12:09:51.093Z,1018.6
2022-08-30T12:11:07.276Z,1018.7
2022-08-30T12:12:23.459Z,1018.7
2022-08-30T12:13:39.571Z,1018.7
2022-08-30T12:14:55.769Z,1018.7
2022-08-30T12:16:12.033Z,1018.7
2022-08-30T12:17:28.223Z,1018.6
2022-08-30T12:18:44.420Z,1018.7
2022-08-30T12:20:00.608Z,1018.7
2022-08-30T12:21:16.697Z,1018.6
2022-08-30T12:22:32.892Z,1018.6
2022-08-30T12:23:49.078Z,1018.6
2022-08-30T12:25:04.374Z,1018.6
2022-08-30T12:26:20.474Z,1018.5
2022-08-30T12:27:36.657Z,1018.6
2022-08-30T12:28:52.847Z,1018.5
2022-08-30T12:30:09.130Z,1018.5
2022-08-30T12:31:25.234Z,1018.5
2022-08-30T12:32:41.512Z,1018.4
2022-08-30T12:33:57.699Z,1018.5
2022-08-30T12:35:13.888Z,1018.4
2022-08-30T12:36:29.991Z,1018.4
2022-08-30T12:37:46.267Z,1018.5
2022-08-30T12:39:02.374Z,1018.4
2022-08-30T12:40:18.558Z,1018.4
2022-08-30T12:41:33.851Z,1018.4
2022-08-30T12:42:50.042Z,1018.4
2022-08-30T12:44:06.140Z,1018.4
2022-08-30T12:45:22.413Z,1018.4
2022-08-30T12:46:38.618Z,1018.4
2022-08-30T12:47:54.797Z,1018.3
2022-08-30T12:49:10.982Z,1018.3
2022-08-30T12:50:27.169Z,1018.4
2022-08-30T12:51:43.275Z,1018.3
2022-08-30T12:52:59.456Z,1018.3
2022-08-30T12:54:15.648Z,1018.3
2022-08-30T12:55:31.933Z,1018.3
2022-08-30T12:56:48.117Z,1018.3
2022-08-30T12:58:03.225Z,1018.3
2022-08-30T12:59:19.417Z,1018.3
2022-08-30T13:00:35.704Z,1018.3
2022-08-30T13:01:51.895Z,1018.3
2022-08-30T13:03:08.093Z,1018.3
2022-08-30T13:04:24.180Z,1018.2
2022-08-30T13:05:40.376Z,1018.2
2022-08-30T13:06:56.548Z,1018.2
2022-08-30T13:08:12.834Z,1018.3
2022-08-30T13:09:28.926Z,1018.2
2022-08-30T13:10:45.230Z,1018.2
2022-08-30T13:12:01.414Z,1018.3
2022-08-30T13:13:17.594Z,1018.2
2022-08-30T13:14:33.690Z,1018.2
2022-08-30T13:15:48.994Z,1018.2
2022-08-30T13:17:05.176Z,1018.2
2022-08-30T13:18:21.276Z,1018.2
2022-08-30T13:19:37.457Z,1018.2
2022-08-30T13:20:53.744Z,1018.1
2022-08-30T13:22:09.847Z,1018.1
2022-08-30T13:23:26.122Z,1018.1
2022-08-30T13:24:42.312Z,1018.1
2022-08-30T13:25:58.516Z,1018.1
2022-08-30T13:27:14.700Z,1018.1
2022-08-30T13:28:30.886Z,1018.1
2022-08-30T13:29:46.973Z,1018.1
2022-08-30T13:31:03.277Z,1018.1
2022-08-30T13:32:18.381Z,1018.1
2022-08-30T13:33:34.670Z,1018.1
2022-08-30T13:34:50.754Z,1018.1
2022-08-30T13:36:07.039Z,1018.1
2022-08-30T13:37:23.117Z,1018.1
2022-08-30T13:38:39.423Z,1018.1
2022-08-30T13:39:55.510Z,1018
2022-08-30T13:41:11.801Z,1018.1
2022-08-30T13:42:27.989Z,1018.1
2022-08-30T13:43:44.081Z,1018.1
2022-08-30T13:45:00.357Z,1018.1
2022-08-30T13:46:16.549Z,1018.1
2022-08-30T13:47:32.647Z,1018.1
2022-08-30T13:48:47.940Z,1018
2022-08-30T13:50:04.129Z,1018
2022-08-30T13:51:20.327Z,1018
2022-08-30T13:52:36.412Z,1018
2022-08-30T13:53:52.708Z,1018
2022-08-30T13:55:08.798Z,1018
2022-08-30T13:56:24.971Z,1018
2022-08-30T13:57:41.264Z,1018
2022-08-30T13:58:57.347Z,1018.1
2022-08-30T14:00:13.536Z,1018
2022-08-30T14:01:29.843Z,1018
2022-08-30T14:02:46.020Z,1018
2022-08-30T14:04:02.227Z,1018
2022-08-30T14:05:17.430Z,1018
2022-08-30T14:06:33.615Z,1018
2022-08-30T14:07:49.802Z,1018
2022-08-30T14:09:05.891Z,1018
2022-08-30T14:10:22.084Z,1018
2022-08-30T14:11:38.380Z,1018
2022-08-30T14:12:54.560Z,1018
2022-08-30T14:14:10.750Z,1018
2022-08-30T14:15:26.827Z,1018.1
2022-08-30T14:16:43.137Z,1018.1
2022-08-30T14:17:59.198Z,1018.1
2022-08-30T14:19:15.506Z,1018.1
2022-08-30T14:20:31.704Z,1018
2022-08-30T14:21:46.000Z,1018.1
2022-08-30T14:23:02.973Z,1018.1
2022-08-30T14:24:19.284Z,1018.2
2022-08-30T14:25:35.360Z,1018.1
2022-08-30T14:26:51.654Z,1018.2
2022-08-30T14:28:07.849Z,1018.3
2022-08-30T14:29:23.927Z,1018.2
2022-08-30T14:30:40.110Z,1018.2
2022-08-30T14:31:56.423Z,1018.3
2022-08-30T14:33:12.485Z,1018.2
2022-08-30T14:34:28.671Z,1018.2
2022-08-30T14:35:44.990Z,1018.2
2022-08-30T14:37:01.166Z,1018.2
2022-08-30T14:38:16.272Z,1018.3
2022-08-30T14:39:32.562Z,1018.2
2022-08-30T14:40:48.648Z,1018.2
2022-08-30T14:42:04.939Z,1018.3
2022-08-30T14:43:21.020Z,1018.3
2022-08-30T14:44:37.204Z,1018.2
2022-08-30T14:45:53.518Z,1018.2
2022-08-30T14:47:09.695Z,1018.3
2022-08-30T14:48:25.773Z,1018.3
2022-08-30T14:49:42.085Z,1018.2
2022-08-30T14:50:58.271Z,1018.2
2022-08-30T14:52:14.456Z,1018.2
2022-08-30T14:53:30.527Z,1018.2
2022-08-30T14:54:45.859Z,1018.2
2022-08-30T14:56:01.928Z,1018.2
2022-08-30T14:57:18.104Z,1018.3
2022-08-30T14:58:34.423Z,1018.2
2022-08-30T14:59:50.605Z,1018.2
2022-08-30T15:01:06.671Z,1018.2
2022-08-30T15:02:22.979Z,1018.3
2022-08-30T15:03:39.170Z,1018.3
2022-08-30T15:04:55.372Z,1018.3
2022-08-30T15:06:11.556Z,1018.2
2022-08-30T15:07:27.737Z,1018.2
2022-08-30T15:08:43.800Z,1018.2
2022-08-30T15:10:00.127Z,1018.3
2022-08-30T15:11:15.328Z,1018.3
2022-08-30T15:12:31.402Z,1018.2
2022-08-30T15:13:47.711Z,1018.3
2022-08-30T15:15:03.891Z,1018.3
2022-08-30T15:16:19.958Z,1018.3
2022-08-30T15:17:36.261Z,1018.3
2022-08-30T15:18:52.337Z,1018.3
2022-08-30T15:20:08.647Z,1018.3
2022-08-30T15:21:24.847Z,1018.2
2022-08-30T15:22:41.020Z,1018.2
2022-08-30T15:23:57.096Z,1018.3
2022-08-30T15:25:13.407Z,1018.2
2022-08-30T15:26:29.592Z,1018.2
2022-08-30T15:27:44.803Z,1018.2
2022-08-30T15:29:00.980Z,1018.2
2022-08-30T15:30:17.186Z,1018.2
2022-08-30T15:31:33.246Z,1018.2
2022-08-30T15:32:49.563Z,1018.2
2022-08-30T15:34:04.768Z,1018.2
2022-08-30T15:35:20.964Z,1018.2
2022-08-30T15:36:37.149Z,1018.2
2022-08-30T15:37:53.207Z,1018.2
2022-08-30T15:39:09.393Z,1018.2
2022-08-30T15:40:25.715Z,1018.2
2022-08-30T15:41:41.895Z,1018.2
2022-08-30T15:42:58.084Z,1018.2
2022-08-30T15:44:14.277Z,1018.2
2022-08-30T15:45:30.339Z,1018.2
2022-08-30T15:46:46.522Z,1018.2
2022-08-30T15:48:02.836Z,1018.2
2022-08-30T15:49:19.037Z,1018.2
2022-08-30T15:50:34.248Z,1018.2
2022-08-30T15:51:50.420Z,1018.2
2022-08-30T15:53:06.617Z,1018.2
2022-08-30T15:54:22.671Z,1018.2
2022-08-30T15:55:38.994Z,1018.2
2022-08-30T15:56:55.196Z,1018.2